createdAt,value
2023-02-17T00:01:26.792Z,1.30
2023-02-17T00:03:54.328Z,1.40
2023-02-17T00:06:24.346Z,1.40
2023-02-17T00:08:51.564Z,1.40
2023-02-17T00:11:18.665Z,1.50
2023-02-17T00:13:46.226Z,1.50
2023-02-17T00:16:17.824Z,1.50
2023-02-17T00:18:45.163Z,1.50
2023-02-17T00:21:18.606Z,1.50
2023-02-17T00:23:46.765Z,1.40
2023-02-17T00:26:14.720Z,1.50
2023-02-17T00:28:43.909Z,1.60
2023-02-17T00:31:16.029Z,1.60
2023-02-17T00:33:43.166Z,1.70
2023-02-17T00:36:18.214Z,1.70
2023-02-17T00:38:46.646Z,1.70
2023-02-17T00:41:15.065Z,1.70
2023-02-17T00:43:41.866Z,1.70
2023-02-17T00:46:08.981Z,1.60
2023-02-17T00:48:36.120Z,1.70
2023-02-17T00:51:03.449Z,1.70
2023-02-17T00:53:30.486Z,1.70
2023-02-17T00:55:57.428Z,1.80
2023-02-17T00:58:24.927Z,1.90
2023-02-17T01:00:52.033Z,1.90
2023-02-17T01:03:19.616Z,2.00
2023-02-17T01:05:48.580Z,1.90
2023-02-17T01:08:17.092Z,1.80
2023-02-17T01:10:47.047Z,1.90
2023-02-17T01:13:15.528Z,1.80
2023-02-17T01:15:45.807Z,1.80
2023-02-17T01:18:13.928Z,1.80
2023-02-17T01:20:41.653Z,1.90
2023-02-17T01:23:10.073Z,1.90
2023-02-17T01:25:42.654Z,1.80
2023-02-17T01:28:14.059Z,1.80
2023-02-17T01:30:41.118Z,1.80
2023-02-17T01:33:08.075Z,1.80
2023-02-17T01:35:35.404Z,1.80
2023-02-17T01:38:02.273Z,1.80
2023-02-17T01:40:30.305Z,1.80
2023-02-17T01:42:57.503Z,1.80
2023-02-17T01:45:34.382Z,1.80
2023-02-17T01:48:12.173Z,1.80
2023-02-17T01:50:54.408Z,1.90
2023-02-17T01:53:29.488Z,1.90
2023-02-17T01:55:57.278Z,1.90
2023-02-17T01:58:27.046Z,2.00
2023-02-17T02:00:58.526Z,2.00
2023-02-17T02:03:27.965Z,2.00
2023-02-17T02:05:55.804Z,1.90
2023-02-17T02:08:22.862Z,1.90
2023-02-17T02:10:49.656Z,1.90
2023-02-17T02:13:16.461Z,2.00
2023-02-17T02:16:21.314Z,2.00
2023-02-17T02:19:13.979Z,2.00
2023-02-17T02:21:47.069Z,1.90
2023-02-17T02:24:38.873Z,1.90
2023-02-17T02:27:20.702Z,2.00
2023-02-17T02:29:57.215Z,2.10
2023-02-17T02:32:43.160Z,2.10
2023-02-17T02:35:15.482Z,2.00
2023-02-17T02:37:56.008Z,1.90
2023-02-17T02:40:27.236Z,1.90
2023-02-17T02:42:54.866Z,1.90
2023-02-17T02:45:22.249Z,1.90
2023-02-17T02:47:53.569Z,1.90
2023-02-17T02:50:41.533Z,1.80
2023-02-17T02:53:17.557Z,1.90
2023-02-17T02:55:59.194Z,1.80
2023-02-17T02:58:53.568Z,1.90
2023-02-17T03:01:26.673Z,1.80
2023-02-17T03:04:01.110Z,1.80
2023-02-17T03:06:37.778Z,1.70
2023-02-17T03:09:17.573Z,1.60
2023-02-17T03:11:47.375Z,1.60
2023-02-17T03:14:17.941Z,1.60
2023-02-17T03:16:46.206Z,1.60
2023-02-17T03:19:14.878Z,1.70
2023-02-17T03:21:57.155Z,1.80
2023-02-17T03:24:24.194Z,1.80
2023-02-17T03:26:51.221Z,1.80
2023-02-17T03:29:18.129Z,1.80
2023-02-17T03:31:48.743Z,1.80
2023-02-17T03:34:15.601Z,1.80
2023-02-17T03:36:42.579Z,1.80
2023-02-17T03:39:09.430Z,1.80
2023-02-17T03:41:36.550Z,1.70
2023-02-17T03:44:03.438Z,1.70
2023-02-17T03:46:30.386Z,1.60
2023-02-17T03:48:57.617Z,1.70
2023-02-17T03:51:25.549Z,1.70
2023-02-17T03:53:52.996Z,1.90
2023-02-17T03:56:20.616Z,1.90
2023-02-17T03:58:48.811Z,1.90
2023-02-17T04:01:16.076Z,1.90
2023-02-17T04:03:43.474Z,1.90
2023-02-17T04:06:11.391Z,1.90
2023-02-17T04:08:39.520Z,1.90
2023-02-17T04:11:07.968Z,1.90
2023-02-17T04:13:35.359Z,2.00
2023-02-17T04:16:04.732Z,2.00
2023-02-17T04:18:32.346Z,2.00
2023-02-17T04:20:59.580Z,2.00
2023-02-17T04:23:26.749Z,2.00
2023-02-17T04:25:53.983Z,2.00
2023-02-17T04:28:22.412Z,2.10
2023-02-17T04:30:50.944Z,2.10
2023-02-17T04:33:19.160Z,2.20
2023-02-17T04:35:47.525Z,2.30
2023-02-17T04:38:14.797Z,2.40
2023-02-17T04:40:42.167Z,2.50
2023-02-17T04:43:09.393Z,2.60
2023-02-17T04:45:37.565Z,2.70
2023-02-17T04:48:04.910Z,2.70
2023-02-17T04:50:31.712Z,2.80
2023-02-17T04:52:58.716Z,2.90
2023-02-17T04:55:25.955Z,3.00
2023-02-17T04:57:52.796Z,3.10
2023-02-17T05:00:20.063Z,3.10
2023-02-17T05:02:47.218Z,3.10
2023-02-17T05:05:15.462Z,3.20
2023-02-17T05:07:43.157Z,3.20
2023-02-17T05:10:10.424Z,3.20
2023-02-17T05:12:37.270Z,3.30
2023-02-17T05:15:05.089Z,3.30
2023-02-17T05:17:32.146Z,3.30
2023-02-17T05:19:59.242Z,3.40
2023-02-17T05:22:26.948Z,3.40
2023-02-17T05:24:54.123Z,3.40
2023-02-17T05:27:20.934Z,3.40
2023-02-17T05:29:47.755Z,3.40
2023-02-17T05:32:14.718Z,3.40
2023-02-17T05:34:41.518Z,3.30
2023-02-17T05:37:08.469Z,3.40
2023-02-17T05:39:35.469Z,3.30
2023-02-17T05:42:02.368Z,3.40
2023-02-17T05:44:29.778Z,3.30
2023-02-17T05:46:56.723Z,3.30
2023-02-17T05:49:23.521Z,3.30
2023-02-17T05:51:50.293Z,3.30
2023-02-17T05:54:17.094Z,3.30
2023-02-17T05:56:44.033Z,3.30
2023-02-17T05:59:10.821Z,3.40
2023-02-17T06:01:37.827Z,3.40
2023-02-17T06:04:05.205Z,3.40
2023-02-17T06:06:32.033Z,3.40
2023-02-17T06:08:58.887Z,3.40
2023-02-17T06:11:25.835Z,3.40
2023-02-17T06:13:52.676Z,3.50
2023-02-17T06:16:19.535Z,3.50
2023-02-17T06:18:46.410Z,3.60
2023-02-17T06:21:13.244Z,3.60
2023-02-17T06:23:40.014Z,3.50
2023-02-17T06:26:07.251Z,3.40
2023-02-17T06:28:35.141Z,3.40
2023-02-17T06:31:02.288Z,3.40
2023-02-17T06:33:29.441Z,3.30
2023-02-17T06:35:56.351Z,3.30
2023-02-17T06:38:23.215Z,3.30
2023-02-17T06:40:50.174Z,3.20
2023-02-17T06:43:17.111Z,3.20
2023-02-17T06:45:44.075Z,3.30
2023-02-17T06:48:11.017Z,3.30
2023-02-17T06:50:38.748Z,3.30
2023-02-17T06:53:05.520Z,3.40
2023-02-17T06:55:34.737Z,3.40
2023-02-17T06:58:01.629Z,3.40
2023-02-17T07:00:28.415Z,3.50
2023-02-17T07:02:55.448Z,3.50
2023-02-17T07:05:22.314Z,3.50
2023-02-17T07:07:49.082Z,3.50
2023-02-17T07:10:15.983Z,3.40
2023-02-17T07:12:42.746Z,3.40
2023-02-17T07:15:12.276Z,3.40
2023-02-17T07:17:39.419Z,3.40
2023-02-17T07:20:09.280Z,3.40
2023-02-17T07:22:36.075Z,3.40
2023-02-17T07:25:03.211Z,3.40
2023-02-17T07:27:30.211Z,3.40
2023-02-17T07:29:57.156Z,3.30
2023-02-17T07:32:24.361Z,3.40
2023-02-17T07:34:51.156Z,3.40
2023-02-17T07:37:20.106Z,3.40
2023-02-17T07:39:46.889Z,3.40
2023-02-17T07:42:13.988Z,3.40
2023-02-17T07:44:40.793Z,3.40
2023-02-17T07:47:07.640Z,3.40
2023-02-17T07:49:34.418Z,3.40
2023-02-17T07:52:02.071Z,3.40
2023-02-17T07:54:29.768Z,3.40
2023-02-17T07:56:56.897Z,3.40
2023-02-17T07:59:23.678Z,3.40
2023-02-17T08:01:50.596Z,3.50
2023-02-17T08:04:17.505Z,3.50
2023-02-17T08:06:44.428Z,3.50
2023-02-17T08:09:30.234Z,3.50
2023-02-17T08:12:15.873Z,3.50
2023-02-17T08:14:42.688Z,3.50
2023-02-17T08:17:09.567Z,3.50
2023-02-17T08:19:47.434Z,3.50
2023-02-17T08:22:16.660Z,3.50
2023-02-17T08:24:43.563Z,3.50
2023-02-17T08:27:10.345Z,3.50
2023-02-17T08:29:37.394Z,3.50
2023-02-17T08:32:04.417Z,3.50
2023-02-17T08:34:34.051Z,3.50
2023-02-17T08:37:01.950Z,3.50
2023-02-17T08:39:28.994Z,3.50
2023-02-17T08:41:56.064Z,3.60
2023-02-17T08:44:23.314Z,3.50
2023-02-17T08:46:51.456Z,3.60
2023-02-17T08:49:19.989Z,3.60
2023-02-17T08:51:47.906Z,3.60
2023-02-17T08:54:15.122Z,3.50
2023-02-17T08:56:43.158Z,3.60
2023-02-17T08:59:10.859Z,3.70
2023-02-17T09:01:38.281Z,3.70
2023-02-17T09:04:07.369Z,3.70
2023-02-17T09:06:39.040Z,3.80
2023-02-17T09:09:07.756Z,3.80
2023-02-17T09:11:34.923Z,3.80
2023-02-17T09:14:02.608Z,3.90
2023-02-17T09:16:29.737Z,3.90
2023-02-17T09:18:56.663Z,3.90
2023-02-17T09:21:23.932Z,3.90
2023-02-17T09:23:51.021Z,3.90
2023-02-17T09:26:19.006Z,4.00
2023-02-17T09:28:45.944Z,4.00
2023-02-17T09:31:15.649Z,4.00
2023-02-17T09:33:42.701Z,4.00
2023-02-17T09:36:11.927Z,4.10
2023-02-17T09:38:39.843Z,4.10
2023-02-17T09:41:14.675Z,4.10
2023-02-17T09:43:41.933Z,4.10
2023-02-17T09:46:26.697Z,4.10
2023-02-17T09:48:57.833Z,4.10
2023-02-17T09:51:43.263Z,4.00
2023-02-17T09:54:36.151Z,4.00
2023-02-17T09:57:07.879Z,4.00
2023-02-17T09:59:43.450Z,4.00
2023-02-17T10:02:19.455Z,4.00
2023-02-17T10:04:51.778Z,4.00
2023-02-17T10:07:24.469Z,3.90
2023-02-17T10:09:57.628Z,3.90
2023-02-17T10:12:27.391Z,3.90
2023-02-17T10:14:57.718Z,4.00
2023-02-17T10:17:46.660Z,4.00
2023-02-17T10:20:41.249Z,4.00
2023-02-17T10:23:23.614Z,4.10
2023-02-17T10:26:30.002Z,4.20
2023-02-17T10:29:14.584Z,4.20
2023-02-17T10:31:54.881Z,4.30
2023-02-17T10:34:37.723Z,4.40
2023-02-17T10:37:21.318Z,4.40
2023-02-17T10:39:53.621Z,4.40
2023-02-17T10:42:36.569Z,4.50
2023-02-17T10:45:14.834Z,4.60
2023-02-17T10:47:42.172Z,4.70
2023-02-17T10:50:20.285Z,4.60
2023-02-17T10:52:48.417Z,4.60
2023-02-17T10:55:24.437Z,4.70
2023-02-17T10:57:58.854Z,4.70
2023-02-17T11:00:26.860Z,4.70
2023-02-17T11:02:54.085Z,4.70
2023-02-17T11:05:27.778Z,4.60
2023-02-17T11:08:01.066Z,4.60
2023-02-17T11:10:37.507Z,4.60
2023-02-17T11:13:19.312Z,4.50
2023-02-17T11:15:47.844Z,4.50
2023-02-17T11:18:25.946Z,4.40
2023-02-17T11:21:10.360Z,4.40
2023-02-17T11:23:49.405Z,4.40
2023-02-17T11:26:25.369Z,4.40
2023-02-17T11:28:52.458Z,4.30
2023-02-17T11:31:29.555Z,4.30
2023-02-17T11:33:57.070Z,4.30
2023-02-17T11:36:30.405Z,4.30
2023-02-17T11:38:59.547Z,4.40
2023-02-17T11:41:26.345Z,4.40
2023-02-17T11:43:59.249Z,4.40
2023-02-17T11:46:53.219Z,4.40
2023-02-17T11:49:33.907Z,4.40
2023-02-17T11:52:08.868Z,4.40
2023-02-17T11:54:47.073Z,4.50
2023-02-17T11:57:36.716Z,4.50
2023-02-17T12:00:19.259Z,4.60
2023-02-17T12:02:55.014Z,4.70
2023-02-17T12:05:32.369Z,4.70
2023-02-17T12:08:20.437Z,4.60
2023-02-17T12:11:06.023Z,4.40
2023-02-17T12:13:49.529Z,4.30
2023-02-17T12:16:22.032Z,4.30
2023-02-17T12:19:20.027Z,4.30
2023-02-17T12:22:09.260Z,4.20
2023-02-17T12:24:47.927Z,4.30
2023-02-17T12:27:38.799Z,4.30
2023-02-17T12:30:36.479Z,4.30
2023-02-17T12:33:12.343Z,4.30
2023-02-17T12:36:05.554Z,4.40
2023-02-17T12:38:35.726Z,4.40
2023-02-17T12:41:14.194Z,4.40
2023-02-17T12:43:48.967Z,4.40
2023-02-17T12:46:29.207Z,4.40
2023-02-17T12:49:05.967Z,4.30
2023-02-17T12:51:38.463Z,4.30
2023-02-17T12:54:20.977Z,4.30
2023-02-17T12:56:56.038Z,4.30
2023-02-17T12:59:44.472Z,4.30
2023-02-17T13:02:11.887Z,4.20
2023-02-17T13:04:39.949Z,4.20
2023-02-17T13:07:09.818Z,4.10
2023-02-17T13:09:45.641Z,4.20
2023-02-17T13:12:24.475Z,4.40
2023-02-17T13:15:26.550Z,4.60
2023-02-17T13:18:05.132Z,4.80
2023-02-17T13:20:45.598Z,4.80
2023-02-17T13:23:14.480Z,4.80
2023-02-17T13:25:41.767Z,4.80
2023-02-17T13:28:39.409Z,4.80
2023-02-17T13:31:16.431Z,4.80
2023-02-17T13:33:55.894Z,4.80
2023-02-17T13:36:36.900Z,4.80
2023-02-17T13:39:25.804Z,4.80
2023-02-17T13:41:57.472Z,4.80
2023-02-17T13:44:38.670Z,4.80
2023-02-17T13:47:07.844Z,4.70
2023-02-17T13:49:35.246Z,4.70
2023-02-17T13:52:22.459Z,4.60
2023-02-17T13:55:04.926Z,4.30
2023-02-17T13:57:37.109Z,4.20
2023-02-17T14:00:19.917Z,4.10
2023-02-17T14:02:51.125Z,3.80
2023-02-17T14:05:49.151Z,3.70
2023-02-17T14:08:28.368Z,3.60
2023-02-17T14:10:55.911Z,3.40
2023-02-17T14:13:24.381Z,3.30
2023-02-17T14:15:53.305Z,3.20
2023-02-17T14:18:34.175Z,3.10
2023-02-17T14:21:06.736Z,2.90
2023-02-17T14:23:49.106Z,2.80
2023-02-17T14:26:29.360Z,2.70
2023-02-17T14:29:02.019Z,2.60
2023-02-17T14:31:29.180Z,2.50
2023-02-17T14:34:02.125Z,2.40
2023-02-17T14:36:37.558Z,2.30
2023-02-17T14:39:12.693Z,2.20
2023-02-17T14:41:39.478Z,2.10
2023-02-17T14:44:06.805Z,1.90
2023-02-17T14:46:34.238Z,1.80
2023-02-17T14:49:01.346Z,1.80
2023-02-17T14:51:34.316Z,1.70
2023-02-17T14:54:15.520Z,1.60
2023-02-17T14:57:04.945Z,1.50
2023-02-17T14:59:31.875Z,1.50
2023-02-17T15:01:58.687Z,1.50
2023-02-17T15:04:25.605Z,1.50
2023-02-17T15:06:54.710Z,1.40
2023-02-17T15:09:30.393Z,1.40
2023-02-17T15:11:57.912Z,1.40
2023-02-17T15:14:24.842Z,1.50
2023-02-17T15:16:51.959Z,1.50
2023-02-17T15:19:18.796Z,1.50
2023-02-17T15:21:51.604Z,1.50
2023-02-17T15:24:26.459Z,1.60
2023-02-17T15:26:55.844Z,1.60
2023-02-17T15:29:24.526Z,1.70
2023-02-17T15:31:53.171Z,1.70
2023-02-17T15:34:23.837Z,1.70
2023-02-17T15:36:50.669Z,1.80
2023-02-17T15:39:19.628Z,1.80
2023-02-17T15:41:48.037Z,1.80
2023-02-17T15:44:24.965Z,1.90
2023-02-17T15:46:54.968Z,1.90
2023-02-17T15:49:22.684Z,2.00
2023-02-17T15:51:49.549Z,2.00
2023-02-17T15:54:19.242Z,2.00
2023-02-17T15:56:51.418Z,2.10
2023-02-17T15:59:24.393Z,2.10
2023-02-17T16:01:51.594Z,2.20
2023-02-17T16:04:18.432Z,2.20
2023-02-17T16:06:45.420Z,2.30
2023-02-17T16:09:12.521Z,2.20
2023-02-17T16:11:57.737Z,2.20
2023-02-17T16:14:32.845Z,2.20
2023-02-17T16:17:00.183Z,2.30
2023-02-17T16:19:28.390Z,2.20
2023-02-17T16:21:55.318Z,2.20
2023-02-17T16:24:22.268Z,2.10
2023-02-17T16:26:49.440Z,2.10
2023-02-17T16:29:21.703Z,2.00
2023-02-17T16:31:49.352Z,2.00
2023-02-17T16:34:24.137Z,2.00
2023-02-17T16:36:53.586Z,2.00
2023-02-17T16:39:21.283Z,2.10
2023-02-17T16:41:49.053Z,2.10
2023-02-17T16:44:17.700Z,2.10
2023-02-17T16:46:52.948Z,2.20
2023-02-17T16:49:31.969Z,2.20
2023-02-17T16:52:00.513Z,2.20
2023-02-17T16:54:27.338Z,2.20
2023-02-17T16:56:54.999Z,2.30
2023-02-17T16:59:23.896Z,2.30
2023-02-17T17:01:53.167Z,2.30
2023-02-17T17:04:20.988Z,2.30
2023-02-17T17:06:50.902Z,2.30
2023-02-17T17:09:25.188Z,2.40
2023-02-17T17:11:52.061Z,2.30
2023-02-17T17:14:21.415Z,2.40
2023-02-17T17:16:55.923Z,2.40
2023-02-17T17:19:22.844Z,2.40
2023-02-17T17:21:50.091Z,2.40
2023-02-17T17:24:16.924Z,2.40
2023-02-17T17:26:46.854Z,2.40
2023-02-17T17:29:15.163Z,2.40
2023-02-17T17:31:42.354Z,2.40
2023-02-17T17:34:09.361Z,2.40
2023-02-17T17:36:40.812Z,2.40
2023-02-17T17:39:13.352Z,2.40
2023-02-17T17:41:40.197Z,2.40
2023-02-17T17:44:08.428Z,2.50
2023-02-17T17:46:38.028Z,2.50
2023-02-17T17:49:08.871Z,2.50
2023-02-17T17:51:37.140Z,2.60
2023-02-17T17:54:05.488Z,2.60
2023-02-17T17:56:35.687Z,2.60
2023-02-17T17:59:03.704Z,2.70
2023-02-17T18:01:30.715Z,2.70
2023-02-17T18:03:59.501Z,2.80
2023-02-17T18:06:33.351Z,2.90
2023-02-17T18:09:04.423Z,2.90
2023-02-17T18:11:32.249Z,3.00
2023-02-17T18:14:01.935Z,3.00
2023-02-17T18:16:30.302Z,3.00
2023-02-17T18:18:59.605Z,3.10
2023-02-17T18:21:26.701Z,3.20
2023-02-17T18:23:53.555Z,3.20
2023-02-17T18:26:20.544Z,3.30
2023-02-17T18:28:47.825Z,3.30
2023-02-17T18:31:16.034Z,3.30
2023-02-17T18:33:43.363Z,3.30
2023-02-17T18:36:11.681Z,3.30
2023-02-17T18:38:38.694Z,3.30
2023-02-17T18:41:06.474Z,3.30
2023-02-17T18:43:33.500Z,3.20
2023-02-17T18:46:00.386Z,3.20
2023-02-17T18:48:27.368Z,3.30
2023-02-17T18:50:54.445Z,3.40
2023-02-17T18:53:21.308Z,3.50
2023-02-17T18:55:48.267Z,3.70
2023-02-17T18:58:15.123Z,3.90
2023-02-17T19:00:41.907Z,4.20
2023-02-17T19:03:08.938Z,4.30
2023-02-17T19:05:35.701Z,4.50
2023-02-17T19:08:02.686Z,4.50
2023-02-17T19:10:29.606Z,4.60
2023-02-17T19:12:56.792Z,4.80
2023-02-17T19:15:23.682Z,4.90
2023-02-17T19:17:54.319Z,4.90
2023-02-17T19:20:21.246Z,4.90
2023-02-17T19:22:48.097Z,4.90
2023-02-17T19:25:14.882Z,4.90
2023-02-17T19:27:41.961Z,4.90
2023-02-17T19:30:10.153Z,5.00
2023-02-17T19:32:37.181Z,4.90
2023-02-17T19:35:04.831Z,4.80
2023-02-17T19:37:31.730Z,4.70
2023-02-17T19:39:58.563Z,4.70
2023-02-17T19:42:25.495Z,4.80
2023-02-17T19:44:52.311Z,4.80
2023-02-17T19:47:19.169Z,4.80
2023-02-17T19:49:45.948Z,4.80
2023-02-17T19:52:12.905Z,4.80
2023-02-17T19:54:39.799Z,4.70
2023-02-17T19:57:06.652Z,4.70
2023-02-17T19:59:33.845Z,4.60
2023-02-17T20:02:00.797Z,4.50
2023-02-17T20:04:27.727Z,4.60
2023-02-17T20:06:54.649Z,4.60
2023-02-17T20:09:22.857Z,4.60
2023-02-17T20:11:53.122Z,4.60
2023-02-17T20:14:21.291Z,4.50
2023-02-17T20:16:48.665Z,4.40
2023-02-17T20:19:15.736Z,4.40
2023-02-17T20:21:44.897Z,4.50
2023-02-17T20:24:15.332Z,4.50
2023-02-17T20:26:45.207Z,4.60
2023-02-17T20:29:12.983Z,4.60
2023-02-17T20:31:41.503Z,4.70
2023-02-17T20:34:20.942Z,4.70
2023-02-17T20:36:47.991Z,4.70
2023-02-17T20:39:19.831Z,4.70
2023-02-17T20:41:46.902Z,4.60
2023-02-17T20:44:13.855Z,4.60
2023-02-17T20:46:42.705Z,4.60
2023-02-17T20:49:10.707Z,4.70
2023-02-17T20:51:37.815Z,4.80
2023-02-17T20:54:04.875Z,4.80
2023-02-17T20:56:35.161Z,4.70
2023-02-17T20:59:02.442Z,4.70
2023-02-17T21:01:29.906Z,4.80
2023-02-17T21:03:57.411Z,4.80
2023-02-17T21:06:30.883Z,4.80
2023-02-17T21:09:07.287Z,4.80
2023-02-17T21:11:34.371Z,4.80
2023-02-17T21:14:01.621Z,4.80
2023-02-17T21:16:33.292Z,4.80
2023-02-17T21:19:01.572Z,4.80
2023-02-17T21:21:28.841Z,4.70
2023-02-17T21:23:57.521Z,4.70
2023-02-17T21:26:25.376Z,4.70
2023-02-17T21:28:52.373Z,4.60
2023-02-17T21:31:19.805Z,4.60
2023-02-17T21:33:46.740Z,4.50
2023-02-17T21:36:16.352Z,4.50
2023-02-17T21:38:43.694Z,4.50
2023-02-17T21:41:16.386Z,4.50
2023-02-17T21:44:02.431Z,4.40
2023-02-17T21:46:30.359Z,4.40
2023-02-17T21:48:59.046Z,4.40
2023-02-17T21:51:26.709Z,4.30
2023-02-17T21:53:54.157Z,4.30
2023-02-17T21:56:22.678Z,4.20
2023-02-17T21:58:51.790Z,4.20
2023-02-17T22:01:18.843Z,4.20
2023-02-17T22:03:45.868Z,4.20
2023-02-17T22:06:33.600Z,4.20
2023-02-17T22:09:00.905Z,4.20
2023-02-17T22:11:33.093Z,4.10
2023-02-17T22:14:02.910Z,4.10
2023-02-17T22:16:32.576Z,4.10
2023-02-17T22:19:00.030Z,4.10
2023-02-17T22:21:27.647Z,4.10
2023-02-17T22:23:54.643Z,4.00
2023-02-17T22:26:24.339Z,4.10
2023-02-17T22:28:52.553Z,4.00
2023-02-17T22:31:22.685Z,4.00
2023-02-17T22:33:49.698Z,4.00
2023-02-17T22:36:24.477Z,3.90
2023-02-17T22:38:52.601Z,3.90
2023-02-17T22:41:20.465Z,3.90
2023-02-17T22:43:48.341Z,3.80
2023-02-17T22:46:18.103Z,3.80
2023-02-17T22:48:46.927Z,3.80
2023-02-17T22:51:19.434Z,3.80
2023-02-17T22:53:46.602Z,3.80
2023-02-17T22:56:14.336Z,3.70
2023-02-17T22:58:41.381Z,3.80
2023-02-17T23:01:11.523Z,3.70
2023-02-17T23:03:39.101Z,3.70
2023-02-17T23:06:10.202Z,3.70
2023-02-17T23:08:37.207Z,3.80
2023-02-17T23:11:06.214Z,3.70
2023-02-17T23:13:33.419Z,3.70
2023-02-17T23:16:00.201Z,3.70
2023-02-17T23:18:29.971Z,3.70
2023-02-17T23:20:56.933Z,3.70
2023-02-17T23:23:24.255Z,3.70
2023-02-17T23:25:54.886Z,3.70
2023-02-17T23:28:23.907Z,3.80
2023-02-17T23:30:51.142Z,3.80
2023-02-17T23:33:21.450Z,3.80
2023-02-17T23:35:48.885Z,3.70
2023-02-17T23:38:18.333Z,3.60
2023-02-17T23:40:51.947Z,3.70
2023-02-17T23:43:20.026Z,3.70
2023-02-17T23:45:46.831Z,3.60
2023-02-17T23:48:14.588Z,3.60
2023-02-17T23:50:41.857Z,3.60
2023-02-17T23:53:09.263Z,3.50
2023-02-17T23:55:36.255Z,3.50
2023-02-17T23:58:03.196Z,3.50
